Los Angeles, California
Traffic Map
Current Weather Conditions
Los Angeles, California

70°
Feels Like: 70°
Wind Chill: 70° Ceiling:
Heat Index: 70° Visibility: 8mi
Dew Point: 60° Wind: 0mph
Humidity: 71% Direction: ° ()
Pressure: 29.88in Gusts: 0mph
Raw Report DataKCQT 281547Z AUTO 00000KT 8SM 21/16 A2988 RMK AO2 SLP117 T02110156 $
Traffic Incident Summary
Active as of:
Severity:
Category:
InformationThere was an issue retrieving the traffic information for this location. Please try a different location or try again shortly.
Advertisements
Track Severe Weather on mobile